Time;durP1;ratioP1;P1;durP2;ratioP2;P2;SDS_P1;SDS_P2;PMS_P1;PMS_P2;Temp;Humidity;BMP_temperature;BMP_pressure;BME280_temperature;BME280_humidity;BME280_pressure;Samples;Min_cycle;Max_cycle;Signal;HPM_P1;HPM_P2
2023/07/16 04:22:36;;;;;;;3.17;2.33;;;;;;;17.21;100.00;100259.41;5089455;28;20328;-66
2023/07/16 04:25:02;;;;;;;5.15;1.67;;;;;;;17.23;100.00;100274.31;5089671;28;20032;-65
2023/07/16 04:27:27;;;;;;;2.35;1.27;;;;;;;17.25;100.00;100279.47;5089428;28;20443;-66
2023/07/16 04:29:53;;;;;;;3.95;1.17;;;;;;;17.27;100.00;100286.28;5089089;28;20044;-66
2023/07/16 04:32:19;;;;;;;1.73;1.10;;;;;;;17.27;100.00;100282.75;5089389;28;20048;-66
2023/07/16 04:34:44;;;;;;;3.67;1.45;;;;;;;17.29;100.00;100286.09;5089303;28;20047;-66
2023/07/16 04:37:10;;;;;;;3.65;1.60;;;;;;;17.33;100.00;100295.34;5089288;28;20040;-67
2023/07/16 04:39:35;;;;;;;2.40;1.40;;;;;;;17.30;100.00;100296.63;5088949;28;20435;-66
2023/07/16 04:42:00;;;;;;;1.95;1.33;;;;;;;17.28;100.00;100303.28;5089145;28;20036;-66
2023/07/16 04:44:26;;;;;;;2.50;1.67;;;;;;;17.33;100.00;100301.56;5089075;28;20550;-66
2023/07/16 04:46:51;;;;;;;2.25;1.45;;;;;;;17.33;100.00;100296.19;5089068;28;20036;-65
2023/07/16 04:49:16;;;;;;;1.80;1.33;;;;;;;17.31;100.00;100302.84;5088682;28;20038;-66
2023/07/16 04:51:42;;;;;;;1.67;1.08;;;;;;;17.34;100.00;100297.84;5089093;28;20048;-65
2023/07/16 04:54:07;;;;;;;3.72;1.33;;;;;;;17.36;100.00;100303.00;5089138;28;20128;-66
2023/07/16 04:56:33;;;;;;;1.98;1.15;;;;;;;17.35;100.00;100312.97;5088856;28;20044;-66
2023/07/16 04:58:58;;;;;;;1.77;1.13;;;;;;;17.42;100.00;100302.16;5088544;28;20040;-66
2023/07/16 05:01:25;;;;;;;3.03;1.23;;;;;;;17.45;100.00;100309.78;5088801;28;20477;-66
2023/07/16 05:03:50;;;;;;;2.33;1.43;;;;;;;17.48;100.00;100306.69;5088857;28;20036;-64
2023/07/16 05:06:15;;;;;;;3.75;1.27;;;;;;;17.51;100.00;100303.53;5088662;28;20293;-65
2023/07/16 05:08:41;;;;;;;2.20;1.17;;;;;;;17.55;100.00;100314.72;5088467;28;20033;-65
2023/07/16 05:11:06;;;;;;;2.63;1.20;;;;;;;17.56;100.00;100309.09;5088685;28;20473;-64
2023/07/16 05:13:32;;;;;;;2.88;1.15;;;;;;;17.52;100.00;100315.94;5088627;28;20078;-64
2023/07/16 05:15:57;;;;;;;4.25;1.33;;;;;;;17.52;100.00;100310.56;5088453;28;20036;-65
2023/07/16 05:18:22;;;;;;;1.92;1.23;;;;;;;17.55;100.00;100322.78;5088234;28;20047;-65
2023/07/16 05:20:49;;;;;;;4.65;1.20;;;;;;;17.60;100.00;100325.63;5088289;28;20032;-66
2023/07/16 05:23:14;;;;;;;3.25;1.08;;;;;;;17.69;100.00;100335.13;5088427;28;20051;-65
2023/07/16 05:25:46;;;;;;;1.80;1.17;;;;;;;17.70;100.00;100323.31;5088365;28;20036;-65
2023/07/16 05:28:11;;;;;;;2.40;1.58;;;;;;;17.69;100.00;100321.66;5088394;28;20035;-66
2023/07/16 05:30:36;;;;;;;1.58;1.13;;;;;;;17.78;100.00;100323.06;5088166;28;20459;-65
2023/07/16 05:33:02;;;;;;;1.13;1.02;;;;;;;17.75;100.00;100326.19;5079522;28;20055;-66
2023/07/16 05:35:27;;;;;;;1.05;0.88;;;;;;;17.76;100.00;100322.47;5074957;28;20040;-66
2023/07/16 05:37:53;;;;;;;1.15;0.80;;;;;;;17.78;100.00;100324.94;5074665;28;20037;-65
2023/07/16 05:40:18;;;;;;;1.92;1.20;;;;;;;17.77;100.00;100323.28;5056387;28;20102;-66
2023/07/16 05:42:44;;;;;;;1.30;0.90;;;;;;;17.78;100.00;100335.72;5073367;28;20413;-66
2023/07/16 05:45:09;;;;;;;0.75;0.68;;;;;;;17.82;100.00;100342.31;5074483;28;20044;-66
2023/07/16 05:47:34;;;;;;;2.78;1.10;;;;;;;17.80;100.00;100339.84;5074446;28;20040;-66
2023/07/16 05:50:01;;;;;;;2.05;1.23;;;;;;;17.86;100.00;100349.72;5074142;28;20509;-66
2023/07/16 05:52:26;;;;;;;1.90;1.00;;;;;;;17.78;100.00;100346.47;5074360;28;20036;-65
2023/07/16 05:54:52;;;;;;;1.98;1.00;;;;;;;17.75;100.00;100347.75;5074379;28;20038;-65
2023/07/16 05:57:17;;;;;;;1.92;1.00;;;;;;;17.81;100.00;100335.28;5074196;28;20390;-66
2023/07/16 05:59:42;;;;;;;2.03;0.98;;;;;;;17.78;100.00;100354.56;5073877;28;20040;-65
2023/07/16 06:02:08;;;;;;;1.75;1.25;;;;;;;17.79;100.00;100348.13;5074118;28;20028;-66
2023/07/16 06:04:33;;;;;;;2.17;1.30;;;;;;;17.82;100.00;100347.72;5074204;28;20408;-65
2023/07/16 06:06:58;;;;;;;1.90;1.30;;;;;;;17.82;100.00;100347.72;5074131;28;20033;-62
2023/07/16 06:09:24;;;;;;;1.63;0.80;;;;;;;17.85;100.00;100348.06;5073888;28;20076;-60
2023/07/16 06:11:52;;;;;;;1.35;1.00;;;;;;;17.99;100.00;100345.28;5073978;28;20525;-64
2023/07/16 06:14:17;;;;;;;1.73;1.08;;;;;;;18.11;100.00;100347.06;5073976;28;20072;-64
2023/07/16 06:16:43;;;;;;;3.15;0.80;;;;;;;18.13;100.00;100350.38;5073828;28;20165;-62
2023/07/16 06:19:08;;;;;;;1.20;0.98;;;;;;;18.21;100.00;100359.22;5073668;28;20037;-63
2023/07/16 06:21:34;;;;;;;2.15;1.05;;;;;;;18.30;100.00;100363.28;5073819;28;20045;-63
2023/07/16 06:23:59;;;;;;;1.73;1.00;;;;;;;18.43;100.00;100365.84;5073762;28;20079;-63
2023/07/16 06:26:25;;;;;;;3.13;1.08;;;;;;;18.52;100.00;100363.69;5073633;28;20378;-63
2023/07/16 06:28:50;;;;;;;3.83;1.45;;;;;;;18.50;100.00;100360.41;5073469;28;20206;-63
2023/07/16 06:31:17;;;;;;;2.03;1.30;;;;;;;18.61;100.00;100362.38;5073723;28;20047;-63
2023/07/16 06:33:42;;;;;;;2.88;1.33;;;;;;;18.64;100.00;100360.03;5072548;28;20090;-62
2023/07/16 06:36:08;;;;;;;1.70;1.10;;;;;;;18.68;100.00;100363.16;5073601;28;20037;-63
2023/07/16 06:38:33;;;;;;;1.95;1.30;;;;;;;18.73;100.00;100360.63;5073212;28;20128;-61
2023/07/16 06:40:58;;;;;;;1.30;0.77;;;;;;;18.85;100.00;100366.09;5073476;28;20070;-63
2023/07/16 06:43:24;;;;;;;4.28;1.33;;;;;;;18.93;100.00;100373.91;5073140;28;20044;-64
2023/07/16 06:45:52;;;;;;;1.25;0.93;;;;;;;19.03;100.00;100376.06;5072673;28;20037;-63
2023/07/16 06:48:18;;;;;;;1.63;1.00;;;;;;;19.15;100.00;100374.25;5072930;28;20037;-63
2023/07/16 06:50:43;;;;;;;1.88;1.10;;;;;;;19.23;98.29;100374.78;5073175;28;20039;-64
2023/07/16 06:53:09;;;;;;;1.45;0.70;;;;;;;19.23;97.25;100382.91;5073260;28;20043;-62
2023/07/16 06:55:34;;;;;;;1.40;1.00;;;;;;;19.45;97.06;100383.22;5073183;28;20032;-57
2023/07/16 06:58:00;;;;;;;2.05;1.05;;;;;;;19.47;95.47;100380.28;5073118;28;20513;-58
2023/07/16 07:00:26;;;;;;;2.35;0.95;;;;;;;19.54;98.18;100383.72;5072914;28;20036;-58
2023/07/16 07:02:51;;;;;;;1.55;0.90;;;;;;;19.62;94.86;100375.31;5074077;28;20033;-58
2023/07/16 07:05:16;;;;;;;1.85;1.10;;;;;;;19.71;92.05;100376.66;5068624;28;20401;-56
2023/07/16 07:07:43;;;;;;;2.22;1.08;;;;;;;19.70;93.51;100366.91;5072752;28;20486;-58
2023/07/16 07:10:08;;;;;;;2.65;0.85;;;;;;;19.81;94.20;100365.28;5072164;28;20040;-58
2023/07/16 07:12:37;;;;;;;2.67;1.13;;;;;;;19.94;93.50;100370.50;5072764;28;20044;-57
2023/07/16 07:15:06;;;;;;;1.52;1.10;;;;;;;20.03;91.44;100376.41;5072711;28;20113;-58
2023/07/16 07:17:32;;;;;;;2.50;0.82;;;;;;;20.09;90.88;100378.19;5072825;28;20186;-58
2023/07/16 07:19:57;;;;;;;0.82;0.82;;;;;;;20.10;89.63;100377.13;5072411;28;20127;-58
2023/07/16 07:22:22;;;;;;;1.42;0.98;;;;;;;20.19;89.79;100383.00;5092045;28;20038;-57
2023/07/16 07:24:49;;;;;;;2.13;0.80;;;;;;;20.15;88.20;100388.06;5092749;28;20027;-57
2023/07/16 07:27:14;;;;;;;1.80;0.95;;;;;;;20.10;85.49;100390.63;5092504;28;20488;-59
2023/07/16 07:29:40;;;;;;;3.05;1.02;;;;;;;20.08;88.53;100390.03;5080855;28;20044;-56
2023/07/16 07:32:05;;;;;;;1.77;1.10;;;;;;;20.19;86.99;100391.94;5072297;28;20033;-58
2023/07/16 07:34:31;;;;;;;3.78;1.08;;;;;;;20.30;84.45;100393.03;5078928;28;20043;-58
2023/07/16 07:36:56;;;;;;;1.73;1.15;;;;;;;20.32;82.68;100391.72;5091330;28;20039;-58
2023/07/16 07:39:22;;;;;;;2.25;1.23;;;;;;;20.31;85.98;100392.78;5092304;28;20046;-58
2023/07/16 07:41:47;;;;;;;3.28;2.00;;;;;;;20.35;86.23;100395.84;5092545;28;20044;-56
2023/07/16 07:44:13;;;;;;;1.73;0.80;;;;;;;20.26;84.03;100395.34;5083099;28;20034;-60
2023/07/16 07:46:38;;;;;;;1.75;1.15;;;;;;;20.26;83.49;100389.94;5072253;28;20036;-55
2023/07/16 07:49:03;;;;;;;0.80;0.70;;;;;;;20.20;84.49;100385.47;5071523;28;20047;-58
2023/07/16 07:51:29;;;;;;;2.47;0.98;;;;;;;20.17;83.52;100398.66;5072149;28;20035;-60
2023/07/16 07:53:54;;;;;;;3.33;1.05;;;;;;;20.03;84.13;100401.56;5072212;28;20127;-58
2023/07/16 07:56:20;;;;;;;1.13;0.95;;;;;;;20.15;85.76;100398.88;5071746;28;20547;-57
2023/07/16 07:58:45;;;;;;;4.88;1.42;;;;;;;20.24;84.42;100393.94;5071725;28;20032;-58
2023/07/16 08:01:11;;;;;;;1.10;0.88;;;;;;;20.35;83.52;100392.31;5072137;28;20452;-54
2023/07/16 08:03:36;;;;;;;1.67;1.02;;;;;;;20.45;82.03;100396.09;5072050;28;20060;-60
2023/07/16 08:06:02;;;;;;;3.53;1.10;;;;;;;20.47;81.21;100404.00;5071920;28;20043;-60
2023/07/16 08:08:27;;;;;;;1.65;1.17;;;;;;;20.75;84.74;100404.13;5070519;28;20058;-55
2023/07/16 08:10:53;;;;;;;1.73;1.05;;;;;;;20.84;78.54;100383.75;5071637;28;20028;-55
2023/07/16 08:13:19;;;;;;;3.38;1.00;;;;;;;20.92;76.92;100396.09;5067222;28;20036;-57
2023/07/16 08:15:44;;;;;;;3.78;1.02;;;;;;;21.06;73.29;100378.56;5057207;28;20043;-52
2023/07/16 08:18:10;;;;;;;2.40;0.88;;;;;;;21.23;73.52;100378.59;5058734;28;20036;-55
2023/07/16 08:20:36;;;;;;;1.75;1.02;;;;;;;21.31;73.50;100378.25;5061372;28;20024;-65
2023/07/16 08:23:01;;;;;;;2.90;1.10;;;;;;;21.33;73.10;100375.31;5060440;28;20025;-65
2023/07/16 08:25:27;;;;;;;1.20;0.80;;;;;;;21.53;73.34;100372.19;5053022;28;20845;-64
2023/07/16 08:27:52;;;;;;;1.58;0.90;;;;;;;21.89;69.93;100376.34;5051836;28;20099;-53
2023/07/16 08:30:18;;;;;;;4.47;0.95;;;;;;;21.81;71.12;100374.03;5051405;28;20037;-65
2023/07/16 08:32:43;;;;;;;3.45;1.10;;;;;;;21.83;72.65;100377.31;5051908;28;20070;-64
2023/07/16 08:35:15;;;;;;;2.00;1.20;;;;;;;21.93;70.61;100374.81;5051757;28;20064;-64
2023/07/16 08:37:40;;;;;;;2.30;0.82;;;;;;;21.99;67.27;100370.28;5051811;28;20120;-66
2023/07/16 08:40:06;;;;;;;2.75;0.90;;;;;;;22.12;66.12;100370.00;5051465;28;20113;-64
2023/07/16 08:42:32;;;;;;;2.33;1.10;;;;;;;21.94;69.15;100379.97;5051794;28;20470;-65
2023/07/16 08:44:58;;;;;;;1.17;0.80;;;;;;;21.95;69.35;100378.09;5051813;28;20040;-65
2023/07/16 08:47:23;;;;;;;1.73;1.10;;;;;;;21.80;71.82;100386.78;5051492;28;20060;-65
2023/07/16 08:49:55;;;;;;;2.15;1.08;;;;;;;21.65;76.79;100389.22;5051280;28;20409;-65
2023/07/16 08:52:20;;;;;;;2.05;0.93;;;;;;;21.44;78.77;100403.44;5051401;28;20387;-63
2023/07/16 08:54:46;;;;;;;1.10;1.00;;;;;;;21.32;75.07;100401.59;5051496;28;20094;-65
2023/07/16 08:57:12;;;;;;;3.85;1.00;;;;;;;21.05;74.93;100398.53;5050393;28;20498;-64
2023/07/16 08:59:37;;;;;;;1.77;1.35;;;;;;;20.83;75.53;100405.66;5051276;28;20095;-65
2023/07/16 09:02:03;;;;;;;2.17;0.98;;;;;;;20.81;74.99;100405.88;5051623;28;20037;-64
2023/07/16 09:04:29;;;;;;;3.08;1.20;;;;;;;20.87;72.83;100409.53;5051588;28;20127;-63
2023/07/16 09:06:55;;;;;;;2.35;1.23;;;;;;;20.76;76.07;100413.06;5051373;28;20049;-64
2023/07/16 09:09:23;;;;;;;3.33;1.35;;;;;;;20.78;74.56;100417.16;5054943;28;20098;-65
2023/07/16 09:11:48;;;;;;;2.75;1.30;;;;;;;21.02;72.99;100398.22;5055180;28;20041;-65
2023/07/16 09:14:18;;;;;;;2.22;1.27;;;;;;;21.08;74.51;100387.25;5055261;28;20045;-65
2023/07/16 09:16:50;;;;;;;3.38;1.50;;;;;;;21.25;69.80;100403.56;5055304;28;20032;-64
2023/07/16 09:19:18;;;;;;;2.65;0.90;;;;;;;21.38;69.07;100410.63;5054984;28;20049;-63
2023/07/16 09:21:52;;;;;;;3.97;1.42;;;;;;;21.70;69.89;100397.44;5055057;28;20028;-64
2023/07/16 09:24:19;;;;;;;2.05;1.15;;;;;;;21.79;68.41;100400.59;5055343;28;20390;-63
2023/07/16 09:26:52;;;;;;;1.67;1.05;;;;;;;22.13;67.60;100401.47;5054949;28;20036;-64
2023/07/16 09:29:17;;;;;;;2.00;0.93;;;;;;;22.56;66.05;100402.69;5054621;28;20037;-63
2023/07/16 09:32:00;;;;;;;3.50;1.30;;;;;;;22.99;62.02;100396.56;5054727;28;20045;-64
2023/07/16 09:34:29;;;;;;;3.60;1.23;;;;;;;23.16;62.80;100401.97;5054834;28;20064;-63
2023/07/16 09:36:56;;;;;;;1.50;1.25;;;;;;;23.15;59.02;100392.16;5054628;28;20048;-63
2023/07/16 09:39:22;;;;;;;2.47;1.15;;;;;;;23.17;58.77;100392.72;5054699;28;20041;-64
2023/07/16 09:41:49;;;;;;;1.83;1.02;;;;;;;23.36;59.84;100394.06;5054409;28;20040;-69
2023/07/16 09:44:16;;;;;;;2.72;0.90;;;;;;;23.69;59.60;100384.94;5054708;28;20037;-65
2023/07/16 09:46:42;;;;;;;2.87;1.47;;;;;;;23.72;57.03;100389.03;5054436;28;20051;-65
2023/07/16 09:49:08;;;;;;;2.97;1.20;;;;;;;23.60;54.43;100396.47;5054277;28;20267;-65
2023/07/16 09:51:35;;;;;;;1.53;1.33;;;;;;;23.59;54.32;100401.09;5054492;28;20537;-65
2023/07/16 09:54:02;;;;;;;4.30;1.42;;;;;;;23.73;55.38;100404.25;5054456;28;20294;-65
2023/07/16 09:56:40;;;;;;;4.50;1.58;;;;;;;23.92;57.03;100408.25;5054429;28;20123;-66
2023/07/16 09:59:11;;;;;;;2.13;1.02;;;;;;;24.21;57.61;100411.53;5057504;28;20051;-65
2023/07/16 10:01:40;;;;;;;2.50;1.30;;;;;;;24.20;57.78;100403.63;5074348;28;20481;-64
2023/07/16 10:04:19;;;;;;;3.60;1.40;;;;;;;24.20;55.96;100398.19;5074269;28;20072;-65
2023/07/16 10:06:56;;;;;;;2.60;1.42;;;;;;;24.40;56.21;100398.38;5074161;28;20127;-65
2023/07/16 10:09:36;;;;;;;2.17;1.38;;;;;;;24.41;55.28;100410.91;5073832;28;20052;-65
2023/07/16 10:12:12;;;;;;;2.63;1.58;;;;;;;24.09;55.71;100406.25;5074031;28;20554;-66
2023/07/16 10:14:49;;;;;;;3.13;1.40;;;;;;;24.05;54.28;100401.56;5074065;28;20123;-65
2023/07/16 10:17:17;;;;;;;;;;;;;;;24.59;51.60;100409.69;5074391;28;20097;-65
2023/07/16 10:20:07;;;;;;;3.58;1.20;;;;;;;24.56;52.95;100411.00;5073537;28;19963;-64
2023/07/16 10:22:33;;;;;;;2.38;1.52;;;;;;;24.82;51.22;100401.09;5074035;28;20086;-66
2023/07/16 10:25:00;;;;;;;2.47;1.17;;;;;;;25.00;49.82;100397.09;5073914;28;20068;-65
2023/07/16 10:27:30;;;;;;;1.92;1.33;;;;;;;25.35;48.36;100398.38;5074015;28;20444;-65
2023/07/16 10:29:56;;;;;;;2.55;1.30;;;;;;;25.49;48.62;100399.50;5072289;28;20447;-66
2023/07/16 10:32:27;;;;;;;2.17;1.48;;;;;;;25.71;47.13;100388.41;5073496;28;20044;-66
2023/07/16 10:34:52;;;;;;;2.90;1.10;;;;;;;25.53;47.75;100395.16;5073885;28;20441;-66
2023/07/16 10:37:18;;;;;;;2.65;1.48;;;;;;;25.95;47.34;100394.16;5073583;28;20135;-65
2023/07/16 10:39:50;;;;;;;2.20;1.20;;;;;;;25.82;47.01;100387.38;5073269;28;20127;-65
2023/07/16 10:42:17;;;;;;;1.92;1.10;;;;;;;25.82;50.55;100391.97;5073553;28;20056;-65
2023/07/16 10:44:43;;;;;;;2.53;1.20;;;;;;;25.74;48.34;100385.13;5073448;28;20036;-66
2023/07/16 10:47:17;;;;;;;3.45;1.10;;;;;;;26.04;48.60;100392.56;5072195;28;20150;-66
2023/07/16 10:49:44;;;;;;;1.98;1.27;;;;;;;26.39;45.79;100379.97;5073091;28;20044;-66
2023/07/16 10:52:09;;;;;;;3.85;1.20;;;;;;;27.15;44.45;100392.69;5073152;28;20036;-66
2023/07/16 10:54:35;;;;;;;2.88;1.20;;;;;;;27.58;44.85;100393.84;5073218;28;20046;-66
2023/07/16 10:57:00;;;;;;;2.47;1.25;;;;;;;27.66;43.96;100385.06;5073052;28;20060;-66
2023/07/16 10:59:26;;;;;;;1.65;1.10;;;;;;;27.61;42.31;100385.09;5072797;28;20044;-66
2023/07/16 11:01:51;;;;;;;4.22;1.48;;;;;;;27.41;42.72;100383.28;5073072;28;20043;-66
2023/07/16 11:04:16;;;;;;;2.75;1.30;;;;;;;27.53;43.56;100389.25;5073082;28;20032;-65
2023/07/16 11:06:42;;;;;;;3.08;1.65;;;;;;;27.35;44.89;100383.59;5071706;28;20565;-65
2023/07/16 11:09:08;;;;;;;3.40;1.65;;;;;;;27.84;45.76;100372.63;5072585;28;20048;-66
2023/07/16 11:11:34;;;;;;;2.95;1.92;;;;;;;28.03;44.60;100376.31;5072713;28;20040;-64
2023/07/16 11:14:02;;;;;;;3.72;1.45;;;;;;;28.42;42.56;100378.19;5072740;28;20497;-66
2023/07/16 11:16:33;;;;;;;1.80;1.20;;;;;;;28.52;42.15;100382.78;5072773;28;20075;-65
2023/07/16 11:18:58;;;;;;;2.88;1.40;;;;;;;28.53;43.49;100387.16;5072496;28;20041;-65
2023/07/16 11:21:24;;;;;;;2.10;1.25;;;;;;;28.62;38.35;100382.66;5072566;28;20082;-66
2023/07/16 11:23:49;;;;;;;2.22;1.23;;;;;;;28.26;40.48;100385.72;5072675;28;20474;-66
2023/07/16 11:26:15;;;;;;;4.75;1.38;;;;;;;28.21;39.77;100380.28;5072508;28;20074;-65
2023/07/16 11:28:41;;;;;;;4.63;1.50;;;;;;;28.28;39.36;100388.97;5072347;28;20032;-65
2023/07/16 11:31:14;;;;;;;2.67;1.25;;;;;;;28.46;39.68;100386.66;5072094;28;20032;-64
2023/07/16 11:33:46;;;;;;;2.63;1.23;;;;;;;28.51;38.31;100375.66;5072552;28;20033;-64
2023/07/16 11:36:12;;;;;;;3.25;1.40;;;;;;;27.99;37.51;100374.47;5072556;28;20032;-63
2023/07/16 11:38:38;;;;;;;3.80;1.40;;;;;;;28.65;38.20;100379.34;5071240;28;20078;-63
2023/07/16 11:41:04;;;;;;;4.15;1.40;;;;;;;28.30;39.32;100381.31;5072415;28;20428;-64
2023/07/16 11:43:35;;;;;;;1.95;1.33;;;;;;;28.01;37.11;100375.78;5072356;28;20041;-64
2023/07/16 11:46:02;;;;;;;2.15;1.20;;;;;;;28.38;37.20;100386.19;5072311;28;20124;-64
2023/07/16 11:48:27;;;;;;;4.40;1.70;;;;;;;28.39;36.07;100379.59;5069274;28;20047;-64
2023/07/16 11:50:52;;;;;;;3.83;1.48;;;;;;;28.12;36.70;100382.00;5055921;28;20044;-61
2023/07/16 11:53:18;;;;;;;3.55;1.55;;;;;;;28.26;35.69;100385.72;5070954;28;20040;-65
2023/07/16 11:55:43;;;;;;;2.65;1.10;;;;;;;28.22;35.52;100373.69;5071970;28;20083;-64
2023/07/16 11:58:09;;;;;;;1.48;1.13;;;;;;;27.98;36.48;100372.81;5072203;28;20481;-64
2023/07/16 12:00:34;;;;;;;2.95;1.15;;;;;;;28.01;42.22;100372.25;5055064;28;20040;-66
2023/07/16 12:02:59;;;;;;;4.70;1.40;;;;;;;28.31;41.45;100377.50;5052100;28;20136;-65
2023/07/16 12:05:27;;;;;;;3.13;1.60;;;;;;;28.70;39.63;100370.28;5051886;28;20080;-65
2023/07/16 12:07:53;;;;;;;2.65;1.45;;;;;;;29.13;39.50;100362.91;5058751;28;20494;-65
2023/07/16 12:10:18;;;;;;;2.55;1.50;;;;;;;29.01;36.94;100360.59;5059778;28;20064;-66
2023/07/16 12:12:44;;;;;;;5.53;1.80;;;;;;;29.09;37.97;100372.88;5058828;28;20084;-65
2023/07/16 12:15:09;;;;;;;3.97;1.48;;;;;;;28.95;39.71;100363.69;5057188;28;20489;-65
2023/07/16 12:17:35;;;;;;;3.65;1.65;;;;;;;28.62;37.46;100364.28;5068023;28;20113;-65
2023/07/16 12:20:03;;;;;;;3.75;1.48;;;;;;;28.22;37.29;100360.00;5071946;28;20059;-65
2023/07/16 12:22:29;;;;;;;4.80;1.48;;;;;;;28.77;36.87;100363.34;5071024;28;20028;-65
2023/07/16 12:24:54;;;;;;;4.90;1.75;;;;;;;28.58;36.92;100354.22;5071768;28;20451;-65
2023/07/16 12:27:20;;;;;;;2.35;1.33;;;;;;;28.63;37.23;100359.66;5071808;28;20063;-65
2023/07/16 12:29:46;;;;;;;2.60;1.67;;;;;;;28.82;38.46;100352.31;5071566;28;20040;-65
2023/07/16 12:32:13;;;;;;;2.53;1.70;;;;;;;28.86;38.76;100344.31;5071807;28;20172;-65
2023/07/16 12:34:38;;;;;;;4.93;1.48;;;;;;;29.26;38.09;100336.69;5068480;28;20071;-65
2023/07/16 12:37:04;;;;;;;5.22;1.83;;;;;;;29.62;37.01;100348.84;5071746;28;20090;-65
2023/07/16 12:39:29;;;;;;;3.70;1.30;;;;;;;29.99;36.17;100341.66;5071491;28;20036;-65
2023/07/16 12:41:55;;;;;;;4.45;1.83;;;;;;;29.90;35.12;100344.28;5071859;28;20028;-65
2023/07/16 12:44:20;;;;;;;4.13;1.33;;;;;;;29.26;36.32;100340.25;5075796;28;20561;-65
2023/07/16 12:46:46;;;;;;;3.60;1.77;;;;;;;29.20;36.34;100331.28;5074154;28;20068;-65
2023/07/16 12:49:11;;;;;;;7.63;2.28;;;;;;;29.39;36.83;100338.72;5060718;28;20033;-65
2023/07/16 12:51:36;;;;;;;3.85;1.70;;;;;;;29.77;36.61;100344.22;5055652;28;20470;-65
2023/07/16 12:54:02;;;;;;;4.10;1.63;;;;;;;29.74;35.12;100340.16;5055466;28;20122;-65
2023/07/16 12:56:28;;;;;;;3.78;1.75;;;;;;;28.91;35.17;100336.88;5055514;28;20508;-65
2023/07/16 12:58:53;;;;;;;4.68;1.67;;;;;;;29.44;35.54;100333.97;5055423;28;20394;-65
2023/07/16 13:01:18;;;;;;;4.13;1.80;;;;;;;29.73;36.98;100333.84;5055527;28;20057;-64
2023/07/16 13:03:44;;;;;;;6.55;1.55;;;;;;;29.28;37.41;100328.97;5055678;28;20043;-65
2023/07/16 13:06:09;;;;;;;3.63;1.63;;;;;;;28.85;37.08;100337.19;5055278;28;20082;-65
2023/07/16 13:08:35;;;;;;;4.20;1.67;;;;;;;29.16;35.37;100330.25;5054947;28;20029;-65
2023/07/16 13:11:00;;;;;;;4.50;2.00;;;;;;;29.02;36.12;100334.03;5055103;28;20037;-65
2023/07/16 13:13:26;;;;;;;4.93;1.85;;;;;;;29.43;36.78;100326.84;5057247;28;20083;-65
2023/07/16 13:15:51;;;;;;;5.30;1.80;;;;;;;29.84;36.42;100330.94;5073974;28;20032;-64
2023/07/16 13:18:18;;;;;;;6.43;2.15;;;;;;;29.88;35.72;100319.06;5074862;28;20074;-63
2023/07/16 13:20:43;;;;;;;4.65;1.88;;;;;;;29.69;36.85;100327.31;5074806;28;20036;-65
2023/07/16 13:23:08;;;;;;;5.38;1.48;;;;;;;29.19;36.33;100315.13;5074838;28;20082;-65
2023/07/16 13:25:35;;;;;;;3.70;2.03;;;;;;;29.01;36.96;100329.63;5074955;28;20032;-65
2023/07/16 13:28:02;;;;;;;4.45;1.88;;;;;;;28.33;37.32;100325.16;5074936;28;20040;-65
2023/07/16 13:30:27;;;;;;;;;;;;;;;28.11;38.87;100322.91;5074881;28;20056;-63
2023/07/16 13:32:55;;;;;;;3.67;2.00;;;;;;;28.44;40.40;100326.69;5074908;28;20412;-65
2023/07/16 13:35:22;;;;;;;6.43;2.38;;;;;;;28.39;39.84;100335.78;5074695;28;20109;-65
2023/07/16 13:37:47;;;;;;;4.25;2.05;;;;;;;28.22;38.52;100326.34;5074672;28;20044;-65
2023/07/16 13:40:12;;;;;;;7.82;2.10;;;;;;;28.04;38.47;100325.97;5074385;28;20040;-64
2023/07/16 13:42:38;;;;;;;2.70;1.63;;;;;;;27.65;38.26;100312.28;5073404;28;20039;-65
2023/07/16 13:45:05;;;;;;;3.05;1.83;;;;;;;27.77;40.29;100312.75;5074743;28;20189;-65
2023/07/16 13:47:31;;;;;;;4.40;2.05;;;;;;;27.46;40.00;100308.59;5074464;28;20155;-64
2023/07/16 13:49:56;;;;;;;3.85;2.38;;;;;;;27.43;41.12;100317.34;5074221;28;20174;-64
2023/07/16 13:52:22;;;;;;;5.82;2.28;;;;;;;27.42;40.90;100310.25;5074289;28;20413;-65
2023/07/16 13:54:47;;;;;;;7.65;2.40;;;;;;;27.41;41.70;100316.84;5072791;28;20048;-64
2023/07/16 13:57:12;;;;;;;5.93;2.20;;;;;;;27.16;40.91;100317.78;5074299;28;20111;-64
2023/07/16 13:59:38;;;;;;;8.73;2.10;;;;;;;26.75;40.33;100313.28;5072430;28;20074;-65
2023/07/16 14:02:04;;;;;;;5.70;1.98;;;;;;;26.66;40.43;100322.31;5053259;28;20033;-65
2023/07/16 14:04:29;;;;;;;4.28;2.30;;;;;;;26.47;41.66;100305.72;5054660;28;20037;-65
2023/07/16 14:06:56;;;;;;;3.85;1.92;;;;;;;26.62;43.48;100308.41;5054257;28;20048;-64
2023/07/16 14:09:22;;;;;;;4.47;1.98;;;;;;;26.63;43.65;100314.69;5053885;28;20044;-64
2023/07/16 14:11:48;;;;;;;4.95;2.28;;;;;;;26.52;42.68;100311.97;5054158;28;20029;-65
2023/07/16 14:14:17;;;;;;;3.35;2.08;;;;;;;26.19;39.58;100310.66;5054029;28;20068;-62
2023/07/16 14:16:43;;;;;;;4.85;2.05;;;;;;;26.32;41.51;100306.53;5053901;28;20123;-64
2023/07/16 14:19:09;;;;;;;5.82;2.20;;;;;;;26.30;40.79;100306.00;5052507;28;20103;-64
2023/07/16 14:21:35;;;;;;;6.63;3.10;;;;;;;26.41;42.56;100317.78;5053735;28;20430;-64
2023/07/16 14:24:00;;;;;;;4.28;2.42;;;;;;;26.23;41.53;100309.03;5053950;28;20127;-64
2023/07/16 14:26:25;;;;;;;5.53;2.17;;;;;;;26.21;40.38;100313.09;5053946;28;20040;-65
2023/07/16 14:28:51;;;;;;;5.55;2.10;;;;;;;26.16;40.84;100313.94;5053383;28;20409;-58
2023/07/16 14:31:16;;;;;;;5.68;2.30;;;;;;;26.19;41.71;100312.56;5053689;28;20037;-61
2023/07/16 14:33:42;;;;;;;4.82;2.90;;;;;;;26.13;41.91;100316.41;5053723;28;20056;-58
2023/07/16 14:36:07;;;;;;;6.68;2.65;;;;;;;26.09;43.49;100307.13;5052233;28;20045;-60
2023/07/16 14:38:32;;;;;;;3.33;1.90;;;;;;;25.92;42.14;100310.13;5061831;28;20063;-61
2023/07/16 14:40:58;;;;;;;10.52;2.58;;;;;;;26.08;41.95;100310.94;5073587;28;20096;-62
2023/07/16 14:43:23;;;;;;;3.35;1.90;;;;;;;26.20;44.08;100316.94;5073431;28;20041;-62
2023/07/16 14:45:49;;;;;;;5.28;2.13;;;;;;;26.21;45.06;100302.19;5073403;28;20043;-58
2023/07/16 14:48:14;;;;;;;5.47;2.55;;;;;;;26.41;42.53;100304.13;5073300;28;20493;-57
2023/07/16 14:50:40;;;;;;;5.60;2.10;;;;;;;26.25;41.51;100303.28;5073063;28;20393;-63
2023/07/16 14:53:05;;;;;;;5.22;2.13;;;;;;;26.34;43.16;100306.25;5073265;28;20044;-62
2023/07/16 14:55:31;;;;;;;6.00;1.92;;;;;;;26.21;40.41;100303.03;5073230;28;20032;-61
2023/07/16 14:57:57;;;;;;;6.30;2.60;;;;;;;26.28;40.62;100304.63;5073155;28;20383;-62
2023/07/16 15:00:23;;;;;;;4.65;2.08;;;;;;;26.06;40.16;100311.22;5071613;28;20062;-63
2023/07/16 15:02:49;;;;;;;2.78;1.80;;;;;;;25.84;39.99;100297.06;5073133;28;20036;-62
2023/07/16 15:05:14;;;;;;;4.50;2.17;;;;;;;25.58;40.42;100291.56;5071723;28;20047;-61
2023/07/16 15:07:40;;;;;;;4.40;1.92;;;;;;;25.60;40.97;100283.91;5073165;28;20510;-63
2023/07/16 15:10:06;;;;;;;4.63;2.22;;;;;;;25.73;41.86;100284.50;5072741;28;20036;-61
2023/07/16 15:12:32;;;;;;;4.15;2.03;;;;;;;25.63;41.19;100277.09;5072730;28;20032;-61
2023/07/16 15:14:58;;;;;;;2.67;1.75;;;;;;;25.71;42.42;100273.84;5072801;28;20036;-63
2023/07/16 15:17:23;;;;;;;3.90;2.28;;;;;;;25.73;42.59;100270.84;5072720;28;20425;-61
2023/07/16 15:19:49;;;;;;;4.20;2.30;;;;;;;25.69;42.02;100278.72;5072444;28;20079;-62
2023/07/16 15:22:20;;;;;;;4.93;1.80;;;;;;;25.76;42.92;100271.13;5072562;28;20060;-60
2023/07/16 15:24:49;;;;;;;5.60;2.53;;;;;;;25.75;41.59;100264.03;5072711;28;20036;-61
2023/07/16 15:27:15;;;;;;;5.45;2.05;;;;;;;25.64;41.39;100271.38;5072680;28;20063;-61
2023/07/16 15:29:41;;;;;;;2.83;1.90;;;;;;;25.33;41.64;100267.78;5072426;28;20036;-62
2023/07/16 15:32:07;;;;;;;4.57;2.10;;;;;;;25.22;41.59;100259.84;5072535;28;20427;-63
2023/07/16 15:34:32;;;;;;;7.38;2.97;;;;;;;25.26;42.79;100269.16;5072361;28;20055;-63
2023/07/16 15:36:58;;;;;;;6.57;2.78;;;;;;;25.26;43.04;100269.16;5072340;28;20047;-61
2023/07/16 15:39:23;;;;;;;5.50;2.03;;;;;;;25.22;43.59;100278.94;5072126;28;20040;-62
2023/07/16 15:41:48;;;;;;;5.03;2.72;;;;;;;25.10;43.50;100269.13;5072417;28;20032;-61